Time;durP1;ratioP1;P1;durP2;ratioP2;P2;SDS_P1;SDS_P2;PMS_P1;PMS_P2;Temp;Humidity;BMP_temperature;BMP_pressure;BME280_temperature;BME280_humidity;BME280_pressure;Samples;Min_cycle;Max_cycle;Signal;HPM_P1;HPM_P2
2023/09/29 00:01:38;;;;;;;15.93;3.65;;;17.10;99.90;;;;;;5069790;28;37635;-81
2023/09/29 00:04:06;;;;;;;12.20;3.80;;;17.00;99.90;;;;;;5077041;28;38326;-81
2023/09/29 00:06:33;;;;;;;10.98;3.40;;;17.10;99.90;;;;;;5071112;28;36337;-81
2023/09/29 00:09:06;;;;;;;17.73;4.30;;;17.10;99.90;;;;;;5071336;28;38982;-81
2023/09/29 00:11:33;;;;;;;11.63;3.40;;;17.10;99.90;;;;;;5067977;28;47191;-82
2023/09/29 00:13:59;;;;;;;17.10;4.10;;;17.20;99.90;;;;;;5066692;28;38030;-80
2023/09/29 00:16:26;;;;;;;18.13;4.07;;;17.20;99.90;;;;;;5080877;28;37325;-80
2023/09/29 00:18:52;;;;;;;14.90;4.05;;;17.20;99.90;;;;;;5092545;28;38913;-81
2023/09/29 00:21:18;;;;;;;10.75;3.45;;;17.20;99.90;;;;;;5089878;28;39499;-82
2023/09/29 00:23:44;;;;;;;15.05;3.80;;;17.20;99.90;;;;;;5067541;28;37685;-82
2023/09/29 00:26:10;;;;;;;16.30;3.97;;;17.20;99.90;;;;;;5065123;27;36180;-82
2023/09/29 00:28:37;;;;;;;14.00;3.85;;;17.20;99.90;;;;;;5069860;28;38387;-83
2023/09/29 00:31:05;;;;;;;20.90;4.65;;;17.20;99.90;;;;;;5070798;28;38305;-82
2023/09/29 00:33:32;;;;;;;17.55;4.28;;;17.20;99.90;;;;;;5065544;28;37478;-80
2023/09/29 00:36:02;;;;;;;17.70;4.43;;;17.10;99.90;;;;;;5087445;28;36808;-80
2023/09/29 00:38:28;;;;;;;18.58;3.80;;;17.20;99.90;;;;;;5080871;28;49017;-81
2023/09/29 00:40:55;;;;;;;17.38;4.60;;;17.20;99.90;;;;;;5068749;28;37586;-81
2023/09/29 00:43:21;;;;;;;17.65;3.75;;;17.10;99.90;;;;;;5082614;28;40094;-81
2023/09/29 00:45:49;;;;;;;18.75;4.35;;;17.20;99.90;;;;;;5062619;28;36134;-81
2023/09/29 00:48:16;;;;;;;11.45;3.47;;;17.20;99.90;;;;;;5055714;28;37500;-81
2023/09/29 00:50:44;;;;;;;12.70;3.30;;;17.20;99.90;;;;;;5072670;28;38796;-80
2023/09/29 00:53:13;;;;;;;12.27;3.28;;;17.20;99.90;;;;;;5079506;28;39895;-80
2023/09/29 00:55:45;;;;;;;16.33;3.50;;;17.10;99.90;;;;;;5080604;28;38204;-80
2023/09/29 00:58:15;;;;;;;17.63;4.35;;;17.10;99.90;;;;;;5071186;28;38573;-80
2023/09/29 01:03:19;;;;;;;10.93;3.30;;;17.20;99.90;;;;;;5262225;22;20064;-84
2023/09/29 01:05:47;;;;;;;16.55;3.50;;;17.10;99.90;;;;;;5040269;28;35944;-84
2023/09/29 01:08:19;;;;;;;15.80;3.72;;;17.10;99.90;;;;;;5040712;28;38733;-84
2023/09/29 01:10:46;;;;;;;18.65;3.67;;;17.20;99.90;;;;;;5066845;28;37675;-84
2023/09/29 01:13:12;;;;;;;14.73;4.75;;;17.10;99.90;;;;;;5069898;28;38381;-84
2023/09/29 01:15:39;;;;;;;10.63;3.53;;;17.20;99.90;;;;;;5050598;28;36123;-81
2023/09/29 01:18:06;;;;;;;15.98;3.92;;;17.10;99.90;;;;;;5067497;28;38197;-83
2023/09/29 01:20:32;;;;;;;13.32;3.83;;;17.00;99.90;;;;;;5063233;28;38770;-83
2023/09/29 01:23:00;;;;;;;11.15;3.75;;;17.00;99.90;;;;;;5047702;28;37591;-83
2023/09/29 01:25:27;;;;;;;19.60;4.50;;;17.00;99.90;;;;;;5046961;28;36729;-84
2023/09/29 01:27:54;;;;;;;15.52;4.18;;;17.00;99.90;;;;;;5037914;28;37480;-83
2023/09/29 01:30:20;;;;;;;19.52;4.38;;;17.00;99.90;;;;;;5045416;28;39514;-83
2023/09/29 01:32:48;;;;;;;17.38;4.50;;;17.00;99.90;;;;;;5060551;28;37303;-82
2023/09/29 01:35:16;;;;;;;15.35;3.97;;;17.00;99.90;;;;;;5082463;28;38363;-81
2023/09/29 01:37:46;;;;;;;12.25;3.90;;;17.00;99.90;;;;;;5069215;28;38921;-82
2023/09/29 01:40:14;;;;;;;14.73;4.32;;;17.00;99.90;;;;;;5046941;28;37983;-83
2023/09/29 01:42:44;;;;;;;12.95;3.63;;;17.00;99.90;;;;;;5049844;28;37489;-82
2023/09/29 01:45:15;;;;;;;11.70;3.80;;;17.00;99.90;;;;;;5045152;28;36492;-86
2023/09/29 01:47:43;;;;;;;18.58;4.63;;;17.00;99.90;;;;;;5046209;28;37653;-82
2023/09/29 01:50:14;;;;;;;14.88;4.10;;;17.00;99.90;;;;;;5056280;28;38630;-83
2023/09/29 01:52:41;;;;;;;15.75;4.47;;;17.00;99.90;;;;;;5029446;28;38775;-82
2023/09/29 01:55:09;;;;;;;15.00;4.43;;;17.00;99.90;;;;;;5046489;28;36331;-82
2023/09/29 01:57:35;;;;;;;16.95;3.78;;;17.00;99.90;;;;;;5042596;28;37816;-83
2023/09/29 02:00:03;;;;;;;15.70;4.30;;;17.10;99.90;;;;;;5062781;28;38642;-82
2023/09/29 02:02:29;;;;;;;15.05;3.88;;;17.10;99.90;;;;;;5047069;28;38483;-83
2023/09/29 02:04:55;;;;;;;14.68;4.10;;;17.10;99.90;;;;;;5057368;28;37455;-83
2023/09/29 02:07:23;;;;;;;16.17;4.72;;;17.10;99.90;;;;;;5038099;28;37697;-82
2023/09/29 02:09:50;;;;;;;14.65;3.78;;;17.10;99.90;;;;;;5047683;28;39348;-83
2023/09/29 02:12:17;;;;;;;14.02;4.68;;;17.10;99.90;;;;;;5043426;28;38381;-83
2023/09/29 02:14:43;;;;;;;14.48;4.53;;;17.20;99.90;;;;;;5061419;28;36990;-83
2023/09/29 02:17:10;;;;;;;15.60;4.18;;;17.20;99.90;;;;;;5061557;28;39622;-84
2023/09/29 02:19:36;;;;;;;16.73;4.18;;;17.30;99.90;;;;;;5045395;28;37968;-83
2023/09/29 02:22:06;;;;;;;12.68;4.10;;;17.30;99.90;;;;;;5056535;28;37671;-83
2023/09/29 02:24:33;;;;;;;20.55;4.78;;;17.30;99.90;;;;;;5048277;28;37630;-82
2023/09/29 02:26:59;;;;;;;13.07;3.80;;;17.40;99.90;;;;;;5043494;28;39496;-83
2023/09/29 02:29:28;;;;;;;16.13;4.53;;;17.40;99.90;;;;;;5031052;28;38908;-83
2023/09/29 02:31:57;;;;;;;14.43;4.10;;;17.40;99.90;;;;;;5058196;28;37289;-83
2023/09/29 02:34:24;;;;;;;13.52;4.15;;;17.40;99.90;;;;;;5045781;28;37514;-83
2023/09/29 02:36:52;;;;;;;20.17;4.70;;;17.40;99.90;;;;;;5065441;28;39470;-82
2023/09/29 02:39:18;;;;;;;16.45;4.90;;;17.40;99.90;;;;;;5048999;28;37880;-83
2023/09/29 02:41:44;;;;;;;17.10;4.03;;;17.40;99.90;;;;;;5062018;28;39355;-83
2023/09/29 02:44:11;;;;;;;15.20;4.32;;;17.30;99.90;;;;;;5055828;28;37339;-83
2023/09/29 02:46:37;;;;;;;15.70;4.03;;;17.20;99.90;;;;;;5036727;28;38790;-84
2023/09/29 02:49:07;;;;;;;18.92;5.13;;;17.10;99.90;;;;;;5052537;28;39098;-83
2023/09/29 02:51:36;;;;;;;16.08;4.35;;;17.00;99.90;;;;;;5052588;28;38327;-83
2023/09/29 02:54:03;;;;;;;14.48;4.43;;;17.00;99.90;;;;;;5046223;28;37148;-83
2023/09/29 02:56:30;;;;;;;13.43;4.32;;;16.90;99.90;;;;;;5064326;28;38651;-83
2023/09/29 02:58:56;;;;;;;14.75;4.55;;;16.90;99.90;;;;;;5048741;28;38216;-84
2023/09/29 03:01:22;;;;;;;14.65;4.13;;;16.80;99.90;;;;;;5064280;28;38290;-84
2023/09/29 03:03:49;;;;;;;16.73;4.00;;;16.90;99.90;;;;;;5060616;28;37329;-83
2023/09/29 03:06:23;;;;;;;12.70;3.40;;;16.80;99.90;;;;;;5063259;28;38889;-84
2023/09/29 03:08:54;;;;;;;16.25;3.92;;;16.80;99.90;;;;;;5059978;28;39619;-84
2023/09/29 03:11:21;;;;;;;16.50;4.30;;;16.90;99.90;;;;;;5048953;28;38595;-85
2023/09/29 03:13:48;;;;;;;11.10;3.88;;;16.90;99.90;;;;;;5065347;28;37329;-83
2023/09/29 03:16:14;;;;;;;17.42;4.47;;;17.00;99.90;;;;;;5042689;28;38628;-84
2023/09/29 03:18:40;;;;;;;14.63;3.95;;;16.90;99.90;;;;;;5062364;28;38864;-82
2023/09/29 03:21:07;;;;;;;14.27;4.15;;;16.90;99.90;;;;;;5062075;28;37439;-84
2023/09/29 03:23:37;;;;;;;11.10;3.40;;;17.00;99.90;;;;;;5046362;28;36255;-84
2023/09/29 03:26:08;;;;;;;12.48;3.80;;;17.00;99.90;;;;;;5066137;28;39493;-83
2023/09/29 03:28:37;;;;;;;12.82;4.70;;;17.10;99.90;;;;;;5054924;28;37766;-84
2023/09/29 03:31:09;;;;;;;14.23;4.00;;;17.10;99.90;;;;;;5048232;28;38397;-84
2023/09/29 03:33:35;;;;;;;9.95;3.85;;;17.10;99.90;;;;;;5062734;28;37320;-83
2023/09/29 03:36:03;;;;;;;10.60;3.88;;;17.20;99.90;;;;;;5061987;28;39129;-83
2023/09/29 03:38:31;;;;;;;10.20;3.30;;;17.10;99.90;;;;;;5057162;28;47301;-84
2023/09/29 03:40:57;;;;;;;12.05;3.65;;;17.20;99.90;;;;;;5063129;28;38633;-84
2023/09/29 03:43:23;;;;;;;13.27;3.28;;;17.20;99.90;;;;;;5046965;28;36204;-83
2023/09/29 03:45:50;;;;;;;8.70;3.30;;;17.20;99.90;;;;;;5041401;28;38223;-84
2023/09/29 03:48:16;;;;;;;8.48;3.60;;;17.30;99.90;;;;;;5062386;28;39746;-84
2023/09/29 03:50:43;;;;;;;14.10;3.88;;;17.30;99.90;;;;;;5042810;28;37396;-84
2023/09/29 03:53:10;;;;;;;10.18;3.92;;;17.30;99.90;;;;;;5045231;28;37784;-84
2023/09/29 03:55:36;;;;;;;13.85;3.88;;;17.30;99.90;;;;;;5042591;28;39020;-83
2023/09/29 03:58:02;;;;;;;9.98;3.63;;;17.30;99.90;;;;;;5041555;28;37831;-84
2023/09/29 04:00:30;;;;;;;10.07;4.18;;;17.40;99.90;;;;;;5055672;28;37242;-83
2023/09/29 04:02:57;;;;;;;15.75;3.67;;;17.40;99.90;;;;;;5059541;28;36717;-84
2023/09/29 04:05:23;;;;;;;9.48;3.45;;;17.40;99.90;;;;;;5042593;28;37968;-84
2023/09/29 04:07:49;;;;;;;8.05;3.25;;;17.40;99.90;;;;;;5063369;28;40119;-83
2023/09/29 04:10:16;;;;;;;11.95;3.15;;;17.50;99.90;;;;;;5037478;28;38690;-83
2023/09/29 04:12:47;;;;;;;9.55;3.45;;;17.50;99.90;;;;;;5041109;28;36494;-84
2023/09/29 04:15:14;;;;;;;15.60;3.75;;;17.60;99.90;;;;;;5059504;28;37033;-83
2023/09/29 04:17:40;;;;;;;9.40;3.53;;;17.60;99.90;;;;;;5046554;28;39190;-82
2023/09/29 04:20:08;;;;;;;11.98;3.55;;;17.70;99.90;;;;;;5040008;28;37310;-82
2023/09/29 04:22:39;;;;;;;8.98;2.88;;;17.70;99.90;;;;;;5053765;28;36937;-81
2023/09/29 04:25:09;;;;;;;7.32;2.72;;;17.80;99.90;;;;;;5042227;28;38263;-82
2023/09/29 04:27:36;;;;;;;12.43;3.72;;;17.80;99.90;;;;;;5051656;28;38662;-81
2023/09/29 04:30:04;;;;;;;8.32;3.47;;;17.90;99.90;;;;;;5056474;28;38329;-81
2023/09/29 04:32:30;;;;;;;10.40;3.35;;;17.90;99.90;;;;;;5041371;28;37558;-81
2023/09/29 04:34:56;;;;;;;13.70;3.58;;;18.00;99.90;;;;;;5041587;28;38796;-80
2023/09/29 04:37:22;;;;;;;13.38;3.63;;;18.00;99.90;;;;;;5041402;28;38034;-79
2023/09/29 04:39:48;;;;;;;7.53;3.22;;;18.10;99.90;;;;;;5061804;28;38282;-80
2023/09/29 04:42:15;;;;;;;8.25;3.35;;;18.20;99.90;;;;;;5040226;28;36182;-78
2023/09/29 04:44:41;;;;;;;9.27;3.13;;;18.30;99.90;;;;;;5065534;28;38522;-79
2023/09/29 04:47:07;;;;;;;12.98;3.40;;;18.40;99.90;;;;;;5059379;28;39273;-78
2023/09/29 04:49:33;;;;;;;9.95;3.42;;;18.50;99.90;;;;;;5057793;28;38165;-80
2023/09/29 04:51:59;;;;;;;11.68;3.33;;;18.40;99.90;;;;;;5050635;28;37494;-81
2023/09/29 04:54:25;;;;;;;7.82;2.90;;;18.40;99.90;;;;;;5042512;28;39506;-82
2023/09/29 04:56:52;;;;;;;7.95;2.60;;;18.40;99.90;;;;;;5063091;28;40143;-76
2023/09/29 04:59:18;;;;;;;10.27;2.53;;;18.50;99.90;;;;;;5049846;28;38864;-78
2023/09/29 05:01:44;;;;;;;8.98;3.38;;;18.40;99.90;;;;;;5048742;28;36353;-78
2023/09/29 05:04:10;;;;;;;10.98;3.25;;;18.40;99.90;;;;;;5060825;28;37702;-77
2023/09/29 05:06:36;;;;;;;9.70;3.00;;;18.50;99.90;;;;;;5052530;28;38830;-78
2023/09/29 05:09:02;;;;;;;8.27;3.03;;;18.40;99.90;;;;;;5053693;28;37619;-79
2023/09/29 05:11:29;;;;;;;7.65;2.85;;;18.40;99.90;;;;;;5064002;28;38803;-79
2023/09/29 05:13:56;;;;;;;10.77;2.70;;;18.40;99.90;;;;;;5061522;28;20052;-79
2023/09/29 05:16:22;;;;;;;9.27;2.80;;;18.40;99.90;;;;;;5044847;28;37632;-78
2023/09/29 05:18:49;;;;;;;9.82;3.47;;;18.40;99.90;;;;;;5061209;28;38841;-78
2023/09/29 05:21:16;;;;;;;8.13;2.80;;;18.40;99.90;;;;;;5042451;28;37523;-82
2023/09/29 05:23:45;;;;;;;9.15;2.67;;;18.40;99.90;;;;;;5043969;28;37779;-81
2023/09/29 05:26:11;;;;;;;10.10;2.67;;;18.40;99.90;;;;;;5068802;28;38634;-81
2023/09/29 05:28:40;;;;;;;9.05;3.20;;;18.40;99.90;;;;;;5046088;28;37251;-84
2023/09/29 05:31:06;;;;;;;11.73;3.35;;;18.40;99.90;;;;;;5014554;28;37020;-82
2023/09/29 05:33:33;;;;;;;10.85;2.78;;;18.40;99.90;;;;;;5047588;28;39484;-80
2023/09/29 05:35:59;;;;;;;7.95;2.92;;;18.40;99.90;;;;;;5016733;28;39683;-81
2023/09/29 05:38:26;;;;;;;13.90;3.92;;;18.40;99.90;;;;;;5048419;28;38444;-79
2023/09/29 05:40:52;;;;;;;11.60;3.30;;;18.40;99.90;;;;;;5059222;28;37948;-78
2023/09/29 05:43:18;;;;;;;6.50;2.55;;;18.50;99.90;;;;;;5007366;28;40338;-79
2023/09/29 05:45:47;;;;;;;11.30;3.33;;;18.50;99.90;;;;;;5052361;28;39294;-78
2023/09/29 05:48:14;;;;;;;8.70;2.92;;;18.50;99.90;;;;;;5054202;28;37472;-78
2023/09/29 05:50:45;;;;;;;6.50;2.55;;;18.50;99.90;;;;;;5035116;28;39412;-81
2023/09/29 05:53:12;;;;;;;5.38;2.70;;;18.50;99.90;;;;;;5036394;28;40398;-84
2023/09/29 05:55:38;;;;;;;10.02;2.58;;;18.60;99.90;;;;;;5018462;28;37765;-82
2023/09/29 05:58:07;;;;;;;10.38;3.05;;;18.60;99.90;;;;;;5057610;28;39324;-82
2023/09/29 06:00:33;;;;;;;8.80;2.85;;;18.60;99.90;;;;;;5046456;28;36587;-82
2023/09/29 06:02:59;;;;;;;7.18;2.55;;;18.60;99.90;;;;;;5034388;28;37585;-83
2023/09/29 06:05:27;;;;;;;8.75;2.85;;;18.60;99.90;;;;;;5059146;28;38756;-82
2023/09/29 06:07:53;;;;;;;6.10;2.65;;;18.70;99.90;;;;;;5039719;28;37837;-83
2023/09/29 06:10:19;;;;;;;8.82;3.17;;;18.70;99.90;;;;;;5038937;28;36278;-81
2023/09/29 06:12:45;;;;;;;9.35;2.78;;;18.70;99.90;;;;;;5042643;28;38166;-82
2023/09/29 06:15:17;;;;;;;9.40;2.67;;;18.80;99.90;;;;;;5063238;28;39280;-81
2023/09/29 06:17:46;;;;;;;6.95;3.42;;;18.80;99.90;;;;;;5038804;28;40692;-81
2023/09/29 06:20:12;;;;;;;6.97;2.42;;;18.70;99.90;;;;;;5017051;28;36529;-82
2023/09/29 06:22:41;;;;;;;9.90;2.78;;;18.80;99.90;;;;;;5057902;28;39601;-81
2023/09/29 06:25:10;;;;;;;6.10;3.03;;;18.80;99.90;;;;;;5034273;28;38623;-81
2023/09/29 06:27:36;;;;;;;6.35;3.10;;;18.80;99.90;;;;;;5042367;28;39278;-79
2023/09/29 06:30:06;;;;;;;7.28;3.45;;;18.80;99.90;;;;;;5056039;28;37655;-80
2023/09/29 06:32:32;;;;;;;7.05;3.00;;;18.80;99.90;;;;;;5026907;28;47429;-81
2023/09/29 06:34:58;;;;;;;7.15;3.05;;;18.80;99.90;;;;;;5040532;28;37863;-81
2023/09/29 06:37:25;;;;;;;6.45;2.42;;;18.80;99.90;;;;;;5060943;28;39299;-82
2023/09/29 06:39:54;;;;;;;5.10;2.53;;;18.80;99.90;;;;;;5045829;28;36010;-79
2023/09/29 06:42:20;;;;;;;6.57;2.95;;;18.80;99.90;;;;;;5041083;28;37644;-81
2023/09/29 06:44:47;;;;;;;6.25;2.50;;;18.90;99.90;;;;;;5062547;28;38575;-80
2023/09/29 06:47:13;;;;;;;7.40;3.08;;;18.90;99.90;;;;;;5043468;28;38927;-79
2023/09/29 06:49:39;;;;;;;5.93;2.58;;;18.80;99.90;;;;;;5058583;28;37700;-80
2023/09/29 06:52:05;;;;;;;6.95;3.10;;;18.80;99.90;;;;;;5058438;28;38670;-81
2023/09/29 06:54:35;;;;;;;4.72;3.00;;;18.80;99.90;;;;;;5059600;28;39096;-82
2023/09/29 06:57:01;;;;;;;8.55;2.65;;;18.80;99.90;;;;;;5035082;28;37821;-83
2023/09/29 06:59:28;;;;;;;5.88;3.03;;;18.90;99.90;;;;;;5038167;28;47226;-82
2023/09/29 07:01:55;;;;;;;5.15;2.70;;;18.90;99.90;;;;;;5031317;28;38148;-81
2023/09/29 07:04:21;;;;;;;5.85;3.05;;;19.00;99.90;;;;;;5055653;28;38705;-82
2023/09/29 07:06:47;;;;;;;8.52;3.50;;;19.00;99.90;;;;;;5057247;28;36843;-82
2023/09/29 07:09:13;;;;;;;7.18;3.10;;;19.00;99.90;;;;;;5050886;28;37303;-82
2023/09/29 07:11:41;;;;;;;5.97;2.83;;;19.00;99.90;;;;;;5055346;28;38966;-80
2023/09/29 07:14:08;;;;;;;5.03;2.47;;;19.00;99.90;;;;;;5041533;28;38355;-79
2023/09/29 07:16:38;;;;;;;7.57;2.80;;;19.00;99.90;;;;;;5039539;28;38673;-82
2023/09/29 07:19:04;;;;;;;8.63;3.25;;;19.00;99.90;;;;;;5041025;28;36518;-79
2023/09/29 07:21:30;;;;;;;8.60;2.90;;;19.00;99.90;;;;;;5042005;28;38127;-80
2023/09/29 07:23:56;;;;;;;4.93;2.70;;;19.10;99.90;;;;;;5047189;28;37795;-80
2023/09/29 07:26:22;;;;;;;4.82;2.63;;;19.00;99.90;;;;;;5058821;28;39688;-78
2023/09/29 07:28:48;;;;;;;4.15;2.35;;;19.10;99.90;;;;;;5059348;28;36910;-80
2023/09/29 07:31:15;;;;;;;9.90;3.25;;;19.00;99.90;;;;;;5042854;28;38735;-81
2023/09/29 07:33:41;;;;;;;4.93;2.38;;;19.10;99.90;;;;;;5039940;28;38229;-80
2023/09/29 07:36:07;;;;;;;7.38;3.08;;;19.20;99.90;;;;;;5061922;28;38256;-81
2023/09/29 07:38:33;;;;;;;10.40;3.10;;;19.20;99.90;;;;;;5038860;28;36253;-81
2023/09/29 07:41:01;;;;;;;9.20;3.20;;;19.30;99.90;;;;;;5042717;28;38437;-80
2023/09/29 07:43:27;;;;;;;6.55;2.53;;;19.40;99.90;;;;;;5039968;28;47265;-81
2023/09/29 07:45:54;;;;;;;8.52;2.95;;;19.40;99.90;;;;;;5042542;28;36185;-81
2023/09/29 07:48:21;;;;;;;6.22;2.88;;;19.40;99.90;;;;;;5046610;28;35924;-80
2023/09/29 07:50:47;;;;;;;4.63;2.63;;;19.40;99.90;;;;;;5067745;28;37627;-80
2023/09/29 07:53:13;;;;;;;5.60;2.63;;;19.50;99.90;;;;;;5073284;28;38927;-80
2023/09/29 07:55:40;;;;;;;4.93;2.67;;;19.60;99.90;;;;;;5056638;28;37219;-80
2023/09/29 07:58:06;;;;;;;7.07;2.40;;;19.70;99.90;;;;;;5047212;28;36266;-81
2023/09/29 08:00:32;;;;;;;5.53;2.53;;;19.80;99.90;;;;;;5044610;28;38779;-78
2023/09/29 08:02:58;;;;;;;8.52;3.00;;;19.90;99.90;;;;;;5050707;28;38302;-79
2023/09/29 08:05:24;;;;;;;6.13;2.65;;;19.90;99.90;;;;;;5066425;28;39496;-80
2023/09/29 08:07:51;;;;;;;5.63;2.60;;;20.00;99.90;;;;;;5063965;28;37203;-81
2023/09/29 08:10:17;;;;;;;4.72;2.70;;;20.00;99.90;;;;;;5053046;28;39546;-77
2023/09/29 08:12:43;;;;;;;8.77;2.63;;;20.00;99.90;;;;;;5053323;28;38995;-79
2023/09/29 08:15:13;;;;;;;6.30;3.20;;;20.10;99.90;;;;;;5063017;28;38322;-80
2023/09/29 08:17:39;;;;;;;5.57;2.40;;;20.10;99.90;;;;;;5067590;28;38155;-80
2023/09/29 08:20:06;;;;;;;5.78;2.42;;;20.10;99.90;;;;;;5060557;28;39515;-80
2023/09/29 08:22:34;;;;;;;5.63;2.65;;;20.10;99.90;;;;;;5044078;28;37981;-79
2023/09/29 08:25:03;;;;;;;7.57;2.63;;;20.10;99.90;;;;;;5054267;28;37522;-80
2023/09/29 08:27:29;;;;;;;4.32;2.05;;;20.00;99.90;;;;;;5068831;28;37879;-78
2023/09/29 08:29:55;;;;;;;8.30;2.28;;;20.10;99.90;;;;;;5051221;28;38671;-79
2023/09/29 08:32:23;;;;;;;6.43;2.65;;;20.00;99.90;;;;;;5051644;28;37717;-78
2023/09/29 08:34:50;;;;;;;7.75;2.80;;;20.00;99.90;;;;;;5065350;28;39463;-80
2023/09/29 08:37:17;;;;;;;7.80;2.50;;;20.00;99.90;;;;;;5064536;28;36831;-78
2023/09/29 08:39:43;;;;;;;5.15;2.35;;;19.90;99.90;;;;;;5065748;28;40319;-81
2023/09/29 08:42:21;;;;;;;5.45;2.42;;;19.90;99.90;;;;;;5063621;28;37567;-79
2023/09/29 08:44:48;;;;;;;6.43;3.22;;;19.80;99.90;;;;;;5060948;28;35963;-80
2023/09/29 08:47:23;;;;;;;6.50;2.45;;;19.80;99.90;;;;;;5065111;28;38687;-79
2023/09/29 08:49:50;;;;;;;6.30;2.75;;;19.80;99.90;;;;;;5050182;28;38600;-79
2023/09/29 08:52:19;;;;;;;8.00;2.90;;;19.80;99.90;;;;;;5050493;28;37434;-78
2023/09/29 08:54:46;;;;;;;6.60;2.83;;;19.80;99.90;;;;;;5041151;28;38445;-81
2023/09/29 08:57:13;;;;;;;8.07;3.03;;;19.80;99.90;;;;;;5052374;28;36365;-79
2023/09/29 08:59:40;;;;;;;5.32;2.60;;;19.80;99.90;;;;;;5070162;28;38824;-79
2023/09/29 09:02:07;;;;;;;7.88;3.05;;;19.80;99.90;;;;;;5047645;28;39067;-82
2023/09/29 09:04:33;;;;;;;6.75;2.80;;;19.80;99.90;;;;;;5050357;28;39325;-81
2023/09/29 09:07:00;;;;;;;7.70;2.88;;;19.80;99.90;;;;;;5043084;28;36206;-79
2023/09/29 09:09:26;;;;;;;6.13;3.00;;;19.70;99.90;;;;;;5064559;28;37575;-79
2023/09/29 09:11:53;;;;;;;8.27;3.03;;;19.70;99.90;;;;;;5050746;28;38118;-79
2023/09/29 09:14:19;;;;;;;8.55;3.17;;;19.70;99.90;;;;;;5042975;28;37545;-80
2023/09/29 09:16:45;;;;;;;7.03;3.50;;;19.60;99.90;;;;;;5066319;28;36992;-79
2023/09/29 09:19:13;;;;;;;8.55;3.45;;;19.60;99.90;;;;;;5062499;28;38927;-81
2023/09/29 09:21:41;;;;;;;7.93;3.58;;;19.60;99.90;;;;;;5060058;28;39517;-82
2023/09/29 09:24:27;;;;;;;5.95;3.50;;;19.60;99.90;;;;;;5055501;28;37482;-81
2023/09/29 09:27:02;;;;;;;7.65;3.42;;;19.60;99.90;;;;;;5056799;28;36233;-79
2023/09/29 09:29:28;;;;;;;7.20;3.33;;;19.70;99.90;;;;;;5044631;28;46894;-80
2023/09/29 09:31:56;;;;;;;7.47;3.20;;;19.70;99.90;;;;;;5067222;28;39720;-80
2023/09/29 09:34:32;;;;;;;4.43;3.00;;;19.60;99.90;;;;;;5061241;28;39180;-80
2023/09/29 09:36:58;;;;;;;6.05;2.88;;;19.60;99.90;;;;;;5056272;28;36919;-79
2023/09/29 09:39:27;;;;;;;6.90;3.35;;;19.60;99.90;;;;;;5060887;28;38931;-80
2023/09/29 09:41:57;;;;;;;6.03;3.67;;;19.60;99.90;;;;;;5045836;28;39406;-79
2023/09/29 09:44:25;;;;;;;5.68;2.95;;;19.60;99.90;;;;;;5064611;28;39020;-80
2023/09/29 09:47:10;;;;;;;6.88;3.25;;;19.70;99.90;;;;;;5046931;28;37279;-79
2023/09/29 09:49:46;;;;;;;5.97;2.92;;;19.80;99.90;;;;;;5032694;28;46971;-80
2023/09/29 09:52:24;;;;;;;7.07;2.72;;;20.00;99.90;;;;;;5055473;28;39935;-80
2023/09/29 09:54:56;;;;;;;3.15;1.95;;;20.20;99.90;;;;;;5061621;28;37209;-78
2023/09/29 09:57:33;;;;;;;5.00;2.20;;;20.30;99.90;;;;;;5042330;28;37387;-79
2023/09/29 10:00:10;;;;;;;6.25;2.65;;;20.40;99.90;;;;;;5060541;28;38411;-79
2023/09/29 10:03:12;;;;;;;5.93;2.33;;;20.50;99.90;;;;;;5059583;28;37600;-79
2023/09/29 10:05:41;;;;;;;3.90;2.63;;;20.40;99.90;;;;;;5025363;28;47383;-78
2023/09/29 10:08:10;;;;;;;3.30;2.40;;;20.40;99.90;;;;;;5059616;28;37299;-77
2023/09/29 10:10:41;;;;;;;4.50;2.22;;;20.20;99.90;;;;;;5038681;28;37760;-80
2023/09/29 10:13:12;;;;;;;3.95;2.22;;;20.00;99.90;;;;;;5057569;28;38462;-80
2023/09/29 10:15:55;;;;;;;3.90;2.35;;;19.80;99.90;;;;;;5034538;28;37684;-78
2023/09/29 10:18:23;;;;;;;4.82;2.60;;;19.70;99.90;;;;;;5053268;28;36071;-79
2023/09/29 10:20:55;;;;;;;4.15;2.47;;;19.50;99.90;;;;;;5061964;28;38042;-80
2023/09/29 10:23:25;;;;;;;;;;;19.50;99.90;;;;;;5045174;28;39103;-79
2023/09/29 10:26:00;;;;;;;2.58;1.70;;;19.50;99.90;;;;;;5061354;28;37382;-80
2023/09/29 10:28:40;;;;;;;3.28;1.20;;;19.30;99.90;;;;;;5060610;28;47436;-79
2023/09/29 10:31:14;;;;;;;3.75;1.55;;;19.00;99.90;;;;;;5038496;28;37662;-82
2023/09/29 10:33:54;;;;;;;4.10;1.20;;;18.90;99.90;;;;;;5061109;28;38969;-77
2023/09/29 10:36:25;;;;;;;8.55;1.33;;;18.80;99.90;;;;;;5040163;28;37258;-75
2023/09/29 10:38:54;;;;;;;4.75;1.40;;;18.70;99.90;;;;;;5043168;28;36496;-76
2023/09/29 10:41:21;;;;;;;7.25;1.52;;;18.80;99.90;;;;;;5055048;28;39223;-78
2023/09/29 10:43:50;;;;;;;3.75;1.00;;;18.80;99.90;;;;;;5038862;28;38782;-81
2023/09/29 10:46:20;;;;;;;8.10;1.40;;;18.70;99.90;;;;;;5035690;28;40335;-82
2023/09/29 10:48:48;;;;;;;7.75;1.42;;;18.80;99.90;;;;;;5058129;28;37082;-80
2023/09/29 10:51:24;;;;;;;8.85;1.48;;;18.80;99.90;;;;;;5059448;28;38561;-79
2023/09/29 10:53:51;;;;;;;6.78;1.33;;;18.70;99.90;;;;;;5054007;28;40423;-78
2023/09/29 10:56:25;;;;;;;4.10;1.48;;;18.60;99.90;;;;;;5057389;28;37805;-80
2023/09/29 10:58:53;;;;;;;10.23;1.55;;;18.70;99.90;;;;;;5058636;28;37255;-76
2023/09/29 11:01:21;;;;;;;5.60;1.40;;;18.70;99.90;;;;;;5058875;28;37335;-80
2023/09/29 11:03:50;;;;;;;6.25;1.70;;;18.60;99.90;;;;;;5039070;28;39130;-78
2023/09/29 11:06:18;;;;;;;6.07;1.73;;;18.60;99.90;;;;;;5042032;28;38431;-78
2023/09/29 11:08:53;;;;;;;7.32;1.77;;;18.40;99.90;;;;;;5039933;28;37889;-77
2023/09/29 11:11:19;;;;;;;6.95;1.95;;;18.40;99.90;;;;;;5046950;28;37716;-77
2023/09/29 11:13:56;;;;;;;4.97;1.67;;;18.50;99.90;;;;;;5058812;28;37513;-78
2023/09/29 11:16:26;;;;;;;7.95;1.60;;;18.40;99.90;;;;;;5039214;28;37977;-79
2023/09/29 11:18:56;;;;;;;7.07;1.77;;;18.30;99.90;;;;;;5052126;28;37943;-78
2023/09/29 11:21:35;;;;;;;8.70;1.77;;;18.30;99.90;;;;;;5055439;28;40273;-79
2023/09/29 11:24:10;;;;;;;6.93;2.25;;;18.30;99.90;;;;;;5040740;28;37675;-80
2023/09/29 11:26:41;;;;;;;6.40;1.35;;;18.30;99.90;;;;;;5058740;28;49312;-77
2023/09/29 11:29:08;;;;;;;7.60;1.90;;;18.20;99.90;;;;;;5060134;28;36936;-78
2023/09/29 11:31:37;;;;;;;9.00;1.92;;;18.20;99.90;;;;;;5047991;28;37656;-78
2023/09/29 11:34:03;;;;;;;12.07;1.90;;;18.30;99.90;;;;;;5059519;28;38504;-76
2023/09/29 11:36:29;;;;;;;9.73;2.05;;;18.40;99.90;;;;;;5037916;28;38211;-78
2023/09/29 11:38:55;;;;;;;8.05;1.58;;;18.30;99.90;;;;;;5061747;28;38165;-78
2023/09/29 11:41:22;;;;;;;11.95;2.10;;;18.20;99.90;;;;;;5056684;28;38793;-81
2023/09/29 11:43:49;;;;;;;13.15;2.20;;;18.40;99.90;;;;;;5044939;28;37948;-79
2023/09/29 11:46:15;;;;;;;9.77;1.77;;;18.40;99.90;;;;;;5039297;28;37573;-81
2023/09/29 11:48:43;;;;;;;7.35;1.70;;;18.30;99.90;;;;;;5042121;28;36600;-79
2023/09/29 11:51:10;;;;;;;12.55;1.85;;;18.40;99.90;;;;;;5042518;28;40059;-81
2023/09/29 11:53:38;;;;;;;9.27;2.10;;;18.40;99.90;;;;;;5048264;28;38980;-82
2023/09/29 11:56:05;;;;;;;10.43;2.22;;;18.40;99.90;;;;;;5051999;28;40175;-82
2023/09/29 11:58:31;;;;;;;9.00;2.20;;;18.50;99.90;;;;;;5063470;28;37075;-81
2023/09/29 12:01:00;;;;;;;9.77;2.10;;;18.50;99.90;;;;;;5050613;28;39031;-81
2023/09/29 12:03:27;;;;;;;11.57;3.00;;;18.50;99.90;;;;;;5041237;28;37660;-82
2023/09/29 12:05:54;;;;;;;8.48;1.92;;;18.60;99.90;;;;;;5041774;28;38381;-81
2023/09/29 12:08:20;;;;;;;14.02;3.33;;;18.60;99.90;;;;;;5039406;28;36480;-82
2023/09/29 12:10:47;;;;;;;13.10;2.95;;;18.60;99.90;;;;;;5056290;28;38590;-80
2023/09/29 12:13:16;;;;;;;10.80;3.20;;;18.70;99.90;;;;;;5055983;28;39518;-81
2023/09/29 12:15:43;;;;;;;13.15;2.40;;;18.60;99.90;;;;;;5023985;28;40756;-78
2023/09/29 12:18:10;;;;;;;18.20;2.88;;;18.60;99.90;;;;;;5037259;28;36689;-81
2023/09/29 12:20:38;;;;;;;17.13;4.18;;;18.50;99.90;;;;;;5056621;28;38993;-79
2023/09/29 12:23:08;;;;;;;12.95;2.70;;;18.60;99.90;;;;;;5038775;28;39210;-79
2023/09/29 12:25:36;;;;;;;13.25;3.08;;;18.70;99.90;;;;;;5056913;28;37536;-81
2023/09/29 12:28:03;;;;;;;14.55;3.33;;;18.80;99.90;;;;;;5037689;28;36637;-80
2023/09/29 12:30:30;;;;;;;12.50;2.67;;;18.70;99.90;;;;;;5032373;28;38480;-78
2023/09/29 12:32:56;;;;;;;11.68;2.80;;;18.80;99.90;;;;;;5038654;28;38071;-77
2023/09/29 12:35:25;;;;;;;12.82;3.03;;;18.80;99.90;;;;;;5040480;28;37716;-77
2023/09/29 12:37:52;;;;;;;10.65;2.90;;;18.90;99.90;;;;;;5057447;28;37036;-78
2023/09/29 12:40:18;;;;;;;11.07;2.97;;;18.80;99.90;;;;;;5029212;28;36113;-77
2023/09/29 12:42:49;;;;;;;11.60;2.40;;;18.80;99.90;;;;;;5034290;28;38877;-77
2023/09/29 12:45:21;;;;;;;8.15;2.42;;;18.70;99.90;;;;;;5040929;28;38360;-77
2023/09/29 12:47:52;;;;;;;10.57;2.55;;;18.80;99.90;;;;;;5057286;28;37852;-79
2023/09/29 12:50:22;;;;;;;12.27;2.28;;;18.80;99.90;;;;;;5059291;28;37462;-77